Time;durP1;ratioP1;P1;durP2;ratioP2;P2;SDS_P1;SDS_P2;PMS_P1;PMS_P2;Temp;Humidity;BMP_temperature;BMP_pressure;BME280_temperature;BME280_humidity;BME280_pressure;Samples;Min_cycle;Max_cycle;Signal;HPM_P1;HPM_P2
2023/06/18 00:01:16;;;;;;;8.90;7.33;;;;;;;20.37;100.00;-16366.19;5074611;28;20192;-58
2023/06/18 00:03:43;;;;;;;8.30;7.57;;;;;;;20.26;100.00;-17655.22;5074729;28;20637;-58
2023/06/18 00:06:10;;;;;;;8.47;7.70;;;;;;;20.30;100.00;-17978.91;5074361;28;20289;-59
2023/06/18 00:08:37;;;;;;;7.83;7.23;;;;;;;20.29;100.00;-18301.28;5074374;28;20195;-59
2023/06/18 00:11:04;;;;;;;9.10;7.47;;;;;;;20.21;100.00;-17976.81;5074353;28;20189;-58
2023/06/18 00:13:32;;;;;;;9.10;7.53;;;;;;;20.34;100.00;-18302.63;5074376;28;20226;-59
2023/06/18 00:15:59;;;;;;;8.30;7.67;;;;;;;20.42;100.00;-17658.75;5074174;28;20180;-59
2023/06/18 00:18:26;;;;;;;7.70;7.23;;;;;;;20.47;100.00;-16691.25;5074288;28;20659;-59
2023/06/18 00:20:53;;;;;;;8.87;8.13;;;;;;;20.42;100.00;-17336.00;5074180;28;20196;-59
2023/06/18 00:23:20;;;;;;;9.23;7.63;;;;;;;20.43;100.00;-17336.25;5073981;28;20224;-58
2023/06/18 00:25:47;;;;;;;8.30;7.43;;;;;;;20.48;100.00;-17337.34;5074411;28;20562;-59
2023/06/18 00:28:14;;;;;;;7.73;7.43;;;;;;;20.38;100.00;-17335.13;5074009;28;20188;-59
2023/06/18 00:30:42;;;;;;;8.77;7.67;;;;;;;20.55;100.00;-16692.84;5074008;28;20677;-59
2023/06/18 00:33:10;;;;;;;7.97;7.50;;;;;;;20.46;100.00;-15721.88;5074037;28;20215;-59
2023/06/18 00:35:38;;;;;;;9.33;8.23;;;;;;;20.34;100.00;-17334.13;5074207;28;20207;-58
2023/06/18 00:38:05;;;;;;;8.93;8.00;;;;;;;20.61;100.00;-16047.88;5072768;28;20189;-58
2023/06/18 00:40:33;;;;;;;8.57;7.87;;;;;;;20.62;100.00;-15078.59;5074147;28;20188;-58
2023/06/18 00:43:03;;;;;;;7.53;6.93;;;;;;;20.52;100.00;-16046.25;5073783;28;20181;-59
2023/06/18 00:45:30;;;;;;;8.13;7.43;;;;;;;20.55;100.00;-16046.66;5073943;28;20192;-59
2023/06/18 00:47:59;;;;;;;8.43;7.90;;;;;;;20.41;100.00;-16689.88;5073677;28;20215;-58
2023/06/18 00:50:26;;;;;;;7.57;7.10;;;;;;;20.33;100.00;-18302.38;5073688;28;20195;-58
2023/06/18 00:52:59;;;;;;;8.80;8.10;;;;;;;20.41;100.00;-18304.16;5073529;28;20204;-58
2023/06/18 00:55:28;;;;;;;8.27;7.40;;;;;;;20.48;100.00;-17660.13;5073579;28;20189;-58
2023/06/18 00:58:02;;;;;;;7.53;7.00;;;;;;;20.32;100.00;-17656.59;5073800;28;20659;-59
2023/06/18 01:00:32;;;;;;;8.43;7.83;;;;;;;20.44;100.00;-17013.56;5073782;28;20180;-58
2023/06/18 01:03:02;;;;;;;8.17;7.57;;;;;;;20.48;100.00;-17660.25;5073450;28;20357;-59
2023/06/18 01:05:31;;;;;;;8.33;7.73;;;;;;;20.48;100.00;-16368.47;5073709;28;20267;-59
2023/06/18 01:08:00;;;;;;;8.60;8.20;;;;;;;20.50;100.00;-16368.88;5073250;28;20207;-59
2023/06/18 01:10:29;;;;;;;12.67;8.20;;;;;;;20.48;100.00;-16691.47;5073279;28;20192;-59
2023/06/18 01:12:57;;;;;;;8.37;7.97;;;;;;;20.42;100.00;-17336.00;5073177;28;20613;-58
2023/06/18 01:15:26;;;;;;;12.00;7.90;;;;;;;20.54;100.00;-16692.63;5073413;28;20195;-59
2023/06/18 01:17:56;;;;;;;9.00;7.97;;;;;;;20.62;100.00;-15078.59;5073381;28;20195;-59
2023/06/18 01:20:27;;;;;;;10.00;7.93;;;;;;;20.51;100.00;-15722.88;5073086;28;20189;-59
2023/06/18 01:23:00;;;;;;;8.33;7.70;;;;;;;20.57;100.00;-15077.75;5073108;28;20278;-58
2023/06/18 01:25:29;;;;;;;8.80;8.17;;;;;;;20.54;100.00;-15077.09;5073033;28;20280;-58
2023/06/18 01:27:57;;;;;;;10.00;9.27;;;;;;;20.47;100.00;-15722.19;5073084;28;20219;-59
2023/06/18 01:30:24;;;;;;;9.00;8.07;;;;;;;20.51;100.00;-16369.09;5073112;28;20211;-58
2023/06/18 01:32:54;;;;;;;8.37;7.77;;;;;;;20.52;100.00;-15723.16;5072688;28;20208;-58
2023/06/18 01:35:21;;;;;;;15.07;8.07;;;;;;;20.50;100.00;-16691.88;5072804;28;20212;-59
2023/06/18 01:38:08;;;;;;;7.97;7.57;;;;;;;20.47;100.00;-16691.25;5072688;28;20189;-59
2023/06/18 01:40:44;;;;;;;9.60;8.97;;;;;;;20.62;100.00;-16371.16;5072849;28;20192;-58
2023/06/18 01:43:18;;;;;;;8.93;8.43;;;;;;;20.61;100.00;-14755.19;5072914;28;20682;-59
2023/06/18 01:45:48;;;;;;;9.18;8.55;;;;;;;20.59;100.00;-14431.66;5072641;28;20189;-58
2023/06/18 01:48:18;;;;;;;9.83;8.97;;;;;;;20.73;100.00;-13140.47;5072719;28;20181;-58
2023/06/18 01:50:48;;;;;;;8.93;8.13;;;;;;;20.85;100.00;-12171.72;5072318;28;20203;-59
2023/06/18 01:53:17;;;;;;;9.13;8.23;;;;;;;20.92;100.00;-9582.38;5072394;28;20383;-59
2023/06/18 01:55:46;;;;;;;9.83;8.87;;;;;;;20.80;100.00;-9905.06;5072352;28;20238;-58
2023/06/18 01:58:14;;;;;;;10.40;8.93;;;;;;;20.81;100.00;-9905.13;5072297;28;20276;-58
2023/06/18 02:00:41;;;;;;;9.43;8.63;;;;;;;20.91;100.00;-10230.00;5072571;28;20207;-59
2023/06/18 02:03:09;;;;;;;9.67;9.00;;;;;;;20.75;100.00;-11523.09;5072518;28;20185;-59
2023/06/18 02:05:36;;;;;;;10.20;9.17;;;;;;;20.78;100.00;-11847.13;5072228;28;20268;-59
2023/06/18 02:08:03;;;;;;;11.97;9.00;;;;;;;20.79;100.00;-11847.19;5072403;28;20185;-58
2023/06/18 02:10:31;;;;;;;9.20;8.63;;;;;;;20.85;100.00;-11200.72;5072517;28;20192;-58
2023/06/18 02:12:58;;;;;;;9.03;8.47;;;;;;;20.69;100.00;-11198.72;5072159;28;20205;-59
2023/06/18 02:15:25;;;;;;;9.60;8.90;;;;;;;20.71;100.00;-12493.22;5072327;28;20185;-59
2023/06/18 02:17:52;;;;;;;9.23;8.57;;;;;;;20.71;100.00;-12493.28;5071118;28;20591;-59
2023/06/18 02:20:19;;;;;;;9.27;8.73;;;;;;;20.67;100.00;-13139.53;5072240;28;20724;-59
2023/06/18 02:22:46;;;;;;;9.50;8.70;;;;;;;20.63;100.00;-13138.91;5071867;28;20342;-59
2023/06/18 02:25:13;;;;;;;9.43;8.83;;;;;;;20.64;100.00;-13785.91;5071789;28;20190;-59
2023/06/18 02:27:53;;;;;;;9.80;8.90;;;;;;;20.71;100.00;-13463.59;5071769;28;20188;-58
2023/06/18 02:30:21;;;;;;;9.27;8.27;;;;;;;20.68;100.00;-13463.19;5071766;28;20181;-58
2023/06/18 02:32:48;;;;;;;9.40;8.90;;;;;;;20.69;100.00;-13139.84;5071821;28;20208;-58
2023/06/18 02:35:16;;;;;;;10.03;9.27;;;;;;;20.67;100.00;-12169.13;5071742;28;20201;-58
2023/06/18 02:37:43;;;;;;;10.40;9.13;;;;;;;20.84;100.00;-10876.78;5071695;28;20184;-59
2023/06/18 02:40:13;;;;;;;8.90;8.40;;;;;;;20.83;100.00;-9905.34;5072194;28;20247;-58
2023/06/18 02:42:47;;;;;;;10.30;9.23;;;;;;;20.94;100.00;-8934.66;5071648;28;20242;-58
2023/06/18 02:45:16;;;;;;;9.30;8.67;;;;;;;20.96;100.00;-8934.84;5071597;28;20241;-60
2023/06/18 02:47:44;;;;;;;9.13;8.23;;;;;;;20.89;100.00;-8286.25;5071486;28;20192;-59
2023/06/18 02:50:11;;;;;;;10.67;7.97;;;;;;;21.03;100.00;-7639.06;5071807;28;20555;-59
2023/06/18 02:52:38;;;;;;;9.75;8.98;;;;;;;21.06;100.00;-6990.84;5071404;28;20299;-58
2023/06/18 02:55:07;;;;;;;8.57;8.07;;;;;;;20.92;100.00;-6341.69;5071886;28;20609;-59
2023/06/18 02:57:34;;;;;;;8.65;8.15;;;;;;;21.11;100.00;-5693.81;5071438;28;20192;-59
2023/06/18 03:00:04;;;;;;;8.97;8.47;;;;;;;21.12;100.00;-5044.97;5071502;28;20279;-59
2023/06/18 03:02:33;;;;;;;8.47;8.00;;;;;;;21.00;100.00;-5693.41;5070881;28;20625;-59
2023/06/18 03:04:59;;;;;;;9.47;8.70;;;;;;;21.05;100.00;-5369.22;5071355;28;20192;-59
2023/06/18 03:07:29;;;;;;;8.63;8.00;;;;;;;21.07;100.00;-5369.28;5071359;28;20192;-59
2023/06/18 03:09:56;;;;;;;8.70;7.90;;;;;;;21.18;100.00;-3746.88;5071618;28;20653;-58
2023/06/18 03:12:24;;;;;;;8.63;8.00;;;;;;;21.14;100.00;-3097.59;5071525;28;20185;-59
2023/06/18 03:14:51;;;;;;;8.37;7.83;;;;;;;21.25;100.00;-2123.22;5071631;28;20203;-59
2023/06/18 03:17:18;;;;;;;8.30;7.93;;;;;;;21.22;100.00;-1473.59;5071852;28;20631;-59
2023/06/18 03:19:46;;;;;;;10.90;8.80;;;;;;;21.29;100.00;-1148.44;5071375;28;20185;-59
2023/06/18 03:22:13;;;;;;;8.67;7.97;;;;;;;21.46;100.00;2429.44;5071861;28;20185;-59
2023/06/18 03:24:40;;;;;;;8.30;7.72;;;;;;;21.47;100.00;3080.31;5071391;28;20185;-58
2023/06/18 03:27:08;;;;;;;8.20;7.75;;;;;;;21.46;100.00;3080.25;5071442;28;20646;-60
2023/06/18 03:29:35;;;;;;;8.37;7.83;;;;;;;21.55;100.00;3406.66;5071190;28;20276;-58
2023/06/18 03:32:02;;;;;;;7.82;7.35;;;;;;;21.51;100.00;4708.47;5071100;28;20189;-59
2023/06/18 03:34:31;;;;;;;7.75;7.35;;;;;;;21.68;100.00;6013.88;5071007;28;20215;-59
2023/06/18 03:37:00;;;;;;;8.30;7.70;;;;;;;21.68;100.00;7317.53;5070187;28;20189;-59
2023/06/18 03:39:27;;;;;;;8.73;8.23;;;;;;;21.77;100.00;8949.72;5071321;28;20236;-59
2023/06/18 03:41:54;;;;;;;8.07;7.47;;;;;;;21.78;100.00;11886.84;5071302;28;20651;-59
2023/06/18 03:44:22;;;;;;;9.27;8.23;;;;;;;21.75;100.00;9927.91;5070960;28;20190;-58
2023/06/18 03:46:49;;;;;;;8.35;7.85;;;;;;;21.82;100.00;9929.50;5071258;28;20181;-59
2023/06/18 03:49:16;;;;;;;8.85;8.13;;;;;;;21.80;100.00;11560.88;5070979;28;20199;-58
2023/06/18 03:51:43;;;;;;;7.88;7.47;;;;;;;21.86;100.00;11562.44;5071207;28;20189;-59
2023/06/18 03:54:11;;;;;;;8.40;7.80;;;;;;;21.89;100.00;12869.34;5071023;28;20228;-58
2023/06/18 03:56:38;;;;;;;8.60;7.88;;;;;;;21.91;100.00;12869.88;5071136;28;20606;-58
2023/06/18 03:59:05;;;;;;;8.48;7.97;;;;;;;21.77;100.00;11886.59;5071158;28;20185;-59
2023/06/18 04:01:32;;;;;;;8.57;7.93;;;;;;;22.02;100.00;13199.38;5070897;28;20189;-58
2023/06/18 04:03:59;;;;;;;8.60;8.10;;;;;;;22.05;100.00;15488.25;5071010;28;20252;-58
2023/06/18 04:06:27;;;;;;;8.55;7.82;;;;;;;22.03;100.00;14833.91;5070766;28;20195;-59
2023/06/18 04:08:53;;;;;;;8.65;7.88;;;;;;;22.07;100.00;17124.34;5070958;28;20212;-59
2023/06/18 04:11:22;;;;;;;8.23;7.50;;;;;;;22.21;100.00;19092.97;5071033;28;20283;-58
2023/06/18 04:13:49;;;;;;;8.18;7.68;;;;;;;22.32;100.00;21717.84;5073645;28;20216;-58
2023/06/18 04:16:16;;;;;;;8.07;7.53;;;;;;;22.42;100.00;24016.78;5074642;28;20228;-58
2023/06/18 04:18:43;;;;;;;8.63;8.02;;;;;;;22.55;100.00;29933.53;5074167;28;20195;-59
2023/06/18 04:21:10;;;;;;;7.90;7.28;;;;;;;22.71;100.00;32902.25;5074463;28;20668;-59
2023/06/18 04:23:37;;;;;;;8.35;7.65;;;;;;;22.78;100.00;44113.41;5073938;28;20229;-59
2023/06/18 04:26:04;;;;;;;8.90;8.40;;;;;;;22.91;100.00;47427.09;5074099;28;20196;-59
2023/06/18 04:28:32;;;;;;;8.02;7.07;;;;;;;23.09;100.00;55387.75;5074451;28;20572;-59
2023/06/18 04:30:59;;;;;;;11.25;9.07;;;;;;;23.29;100.00;63704.75;5074044;28;20191;-59
2023/06/18 04:33:26;;;;;;;8.88;8.30;;;;;;;23.42;100.00;79713.66;5074442;28;20519;-59
2023/06/18 04:35:53;;;;;;;7.85;7.45;;;;;;;23.36;100.00;85052.28;5074168;28;20548;-58
2023/06/18 04:38:21;;;;;;;6.95;6.47;;;;;;;23.59;100.00;92789.88;5073894;28;20193;-60
2023/06/18 04:40:48;;;;;;;7.68;7.38;;;;;;;23.65;100.00;92463.91;5074266;28;20185;-59
2023/06/18 04:43:17;;;;;;;10.57;7.85;;;;;;;23.96;100.00;116078.34;5074143;28;20193;-59
2023/06/18 04:45:47;;;;;;;9.10;8.38;;;;;;;24.14;100.00;135766.09;5073758;28;20196;-59
2023/06/18 04:48:14;;;;;;;9.00;8.32;;;;;;;24.36;100.00;151130.44;5074188;28;20191;-59
2023/06/18 04:50:41;;;;;;;8.00;7.50;;;;;;;24.46;100.00;152189.63;5073858;28;20192;-59
2023/06/18 04:53:08;;;;;;;8.75;8.02;;;;;;;24.74;100.00;152259.88;5073826;28;20520;-59
2023/06/18 04:55:36;;;;;;;10.20;7.93;;;;;;;24.90;100.00;152300.78;5073558;28;20189;-59
2023/06/18 04:58:04;;;;;;;8.10;7.57;;;;;;;24.57;100.00;152217.69;5072515;28;20227;-58
2023/06/18 05:00:31;;;;;;;9.60;8.88;;;;;;;24.59;100.00;152222.81;5073672;28;20189;-59
2023/06/18 05:02:59;;;;;;;9.05;8.45;;;;;;;24.29;100.00;152146.19;5073600;28;20283;-59
2023/06/18 05:05:27;;;;;;;8.93;8.35;;;;;;;24.66;100.00;152239.41;5073707;28;20713;-59
2023/06/18 05:07:54;;;;;;;10.10;9.48;;;;;;;24.65;100.00;152238.16;5073593;28;20616;-59
2023/06/18 05:10:22;;;;;;;10.45;9.68;;;;;;;24.77;100.00;152268.81;5073620;28;20555;-59
2023/06/18 05:12:49;;;;;;;8.77;8.20;;;;;;;25.06;100.00;152340.38;5073235;28;20185;-59
2023/06/18 05:15:15;;;;;;;10.02;9.30;;;;;;;25.00;100.00;152326.31;5073571;28;20254;-60
2023/06/18 05:17:42;;;;;;;9.98;9.35;;;;;;;24.81;100.00;152279.03;5073308;28;20185;-59
2023/06/18 05:20:12;;;;;;;10.60;9.88;;;;;;;24.92;100.00;152307.16;5073418;28;20181;-59
2023/06/18 05:22:40;;;;;;;10.85;10.18;;;;;;;25.12;100.00;152356.97;5072870;28;20232;-59
2023/06/18 05:25:07;;;;;;;11.48;10.80;;;;;;;25.23;100.00;152385.09;5073185;28;20218;-59
2023/06/18 05:27:34;;;;;;;10.95;10.13;;;;;;;25.14;100.00;152360.81;5072950;28;20195;-60
2023/06/18 05:30:01;;;;;;;11.15;10.55;;;;;;;25.13;100.00;152358.25;5072857;28;20276;-59
2023/06/18 05:32:28;;;;;;;11.95;10.80;;;;;;;25.16;100.00;152365.94;5073042;28;20196;-59
2023/06/18 05:34:55;;;;;;;11.40;10.57;;;;;;;25.30;100.00;152401.69;5073057;28;20262;-59
2023/06/18 05:37:24;;;;;;;12.00;11.02;;;;;;;25.60;100.00;152478.41;5072768;28;20242;-59
2023/06/18 05:39:52;;;;;;;11.93;11.13;;;;;;;25.95;100.00;152565.31;5072689;28;20570;-59
2023/06/18 05:42:19;;;;;;;12.07;11.07;;;;;;;26.18;100.00;152624.16;5072660;28;20242;-59
2023/06/18 05:44:46;;;;;;;14.05;11.25;;;;;;;26.20;100.00;152629.28;5072598;28;20207;-61
2023/06/18 05:47:13;;;;;;;10.32;9.73;;;;;;;26.05;100.00;152592.19;5072581;28;20193;-59
2023/06/18 05:49:40;;;;;;;11.80;11.00;;;;;;;26.21;100.00;152633.16;5072882;28;20551;-59
2023/06/18 05:52:07;;;;;;;10.88;10.25;;;;;;;26.12;100.00;152608.78;5072717;28;20222;-60
2023/06/18 05:54:36;;;;;;;10.82;10.07;;;;;;;26.10;100.00;152603.66;5072689;28;20588;-60
2023/06/18 05:57:03;;;;;;;10.20;9.80;;;;;;;26.04;100.00;152589.63;5072260;28;20272;-59
2023/06/18 05:59:30;;;;;;;11.00;10.05;;;;;;;25.71;100.00;152506.56;5070989;28;20196;-61
2023/06/18 06:01:57;;;;;;;11.05;10.35;;;;;;;25.45;100.00;152440.06;5072335;28;20189;-59
2023/06/18 06:04:24;;;;;;;11.65;10.40;;;;;;;25.39;100.00;152424.69;5072623;28;20185;-59
2023/06/18 06:06:51;;;;;;;11.35;10.52;;;;;;;25.52;100.00;152457.94;5072306;28;20214;-60
2023/06/18 06:09:18;;;;;;;11.00;10.07;;;;;;;25.84;100.00;152538.50;5072280;28;20185;-59
2023/06/18 06:11:47;;;;;;;10.52;9.65;;;;;;;26.00;100.00;152578.13;5072059;28;20188;-59
2023/06/18 06:14:14;;;;;;;10.13;9.52;;;;;;;25.98;100.00;152574.28;5072386;28;20236;-60
2023/06/18 06:16:41;;;;;;;9.70;9.10;;;;;;;26.08;100.00;152598.56;5072058;28;20276;-59
2023/06/18 06:19:07;;;;;;;10.50;9.68;;;;;;;26.44;100.00;152690.66;5072274;28;20578;-59
2023/06/18 06:21:34;;;;;;;9.52;9.02;;;;;;;26.88;100.00;152800.69;5072154;28;20562;-59
2023/06/18 06:24:01;;;;;;;9.38;8.98;;;;;;;27.20;100.00;152882.56;5071640;28;20229;-61
2023/06/18 06:26:28;;;;;;;10.45;9.45;;;;;;;27.22;100.00;152887.66;5072105;28;20207;-59
2023/06/18 06:28:57;;;;;;;9.73;9.40;;;;;;;27.70;100.00;153010.56;5072078;28;20181;-59
2023/06/18 06:31:24;;;;;;;9.70;9.05;;;;;;;27.81;100.00;153036.13;5072014;28;20549;-60
2023/06/18 06:33:51;;;;;;;9.88;9.15;;;;;;;27.74;100.00;153018.22;5071941;28;20209;-60
2023/06/18 06:36:18;;;;;;;10.02;9.43;;;;;;;27.86;100.00;153048.94;5071612;28;20189;-59
2023/06/18 06:38:45;;;;;;;9.88;9.50;;;;;;;28.20;100.00;153136.03;5071579;28;20239;-59
2023/06/18 06:41:11;;;;;;;9.48;9.02;;;;;;;28.81;100.00;153291.00;5072140;28;20639;-60
2023/06/18 06:43:38;;;;;;;9.80;9.00;;;;;;;29.26;100.00;153403.69;5071840;28;20670;-60
2023/06/18 06:46:07;;;;;;;10.32;9.73;;;;;;;29.08;100.00;153358.84;5071828;28;20627;-60
2023/06/18 06:48:34;;;;;;;10.70;9.82;;;;;;;28.97;100.00;153330.69;5071500;28;20230;-58
2023/06/18 06:51:01;;;;;;;11.55;10.57;;;;;;;28.93;100.00;153321.72;5071873;28;20590;-59
2023/06/18 06:53:27;;;;;;;11.20;10.48;;;;;;;29.49;100.00;153463.91;5071800;28;20305;-60
2023/06/18 06:55:54;;;;;;;10.18;9.48;;;;;;;29.68;100.00;153510.06;5071479;28;20212;-60
2023/06/18 06:58:21;;;;;;;12.23;11.27;;;;;;;29.33;100.00;153422.94;5071424;28;20188;-60
2023/06/18 07:00:48;;;;;;;10.32;9.57;;;;;;;29.09;100.00;153361.41;5071351;28;20234;-59
2023/06/18 07:03:16;;;;;;;23.90;20.90;;;;;;;29.04;100.00;153348.59;5071790;28;20532;-60
2023/06/18 07:05:44;;;;;;;19.15;12.85;;;;;;;28.93;100.00;153321.72;5071646;28;20276;-60
2023/06/18 07:08:10;;;;;;;11.70;11.00;;;;;;;28.71;100.00;153264.09;5071476;28;20280;-65
2023/06/18 07:10:38;;;;;;;9.45;8.77;;;;;;;28.79;100.00;153284.56;5071363;28;20191;-65
2023/06/18 07:13:04;;;;;;;12.95;8.35;;;;;;;28.78;100.00;153282.00;5071751;28;20189;-65
2023/06/18 07:15:32;;;;;;;8.43;7.95;;;;;;;28.88;100.00;153307.63;5071531;28;20208;-65
2023/06/18 07:17:59;;;;;;;17.92;16.35;;;;;;;29.12;100.00;153367.81;5071703;28;20524;-65
2023/06/18 07:20:27;;;;;;;9.20;8.70;;;;;;;29.05;100.00;153351.19;5070505;28;20195;-66
2023/06/18 07:22:54;;;;;;;8.65;7.97;;;;;;;29.27;100.00;153407.53;5070320;28;20690;-66
2023/06/18 07:25:21;;;;;;;58.58;44.00;;;;;;;29.60;100.00;153489.56;5071691;28;20655;-65
2023/06/18 07:27:48;;;;;;;29.13;26.10;;;;;;;29.90;100.00;153567.78;5071575;28;20578;-65
2023/06/18 07:30:15;;;;;;;13.43;12.13;;;;;;;30.02;100.00;153595.94;5071815;28;20195;-65
2023/06/18 07:32:42;;;;;;;14.95;14.13;;;;;;;30.02;100.00;153597.25;5071701;28;20196;-65
2023/06/18 07:35:09;;;;;;;151.80;108.43;;;;;;;30.24;100.00;153653.63;5071143;28;20255;-64
2023/06/18 07:37:37;;;;;;;19.73;17.65;;;;;;;30.18;100.00;153636.94;5071752;28;20188;-67
2023/06/18 07:40:05;;;;;;;7.40;6.68;;;;;;;30.31;100.00;153671.56;5071351;28;20199;-65
2023/06/18 07:42:32;;;;;;;14.10;12.95;;;;;;;30.32;100.00;153672.84;5071559;28;20185;-65
2023/06/18 07:44:59;;;;;;;11.63;7.55;;;;;;;30.27;100.00;153661.31;5071242;28;20185;-65
2023/06/18 07:47:26;;;;;;;170.52;112.90;;;;;;;30.65;100.00;153756.22;5072524;28;20271;-65
2023/06/18 07:49:53;;;;;;;29.83;23.75;;;;;;;30.46;100.00;153707.50;5075331;28;20189;-65
2023/06/18 07:52:21;;;;;;;24.80;20.80;;;;;;;30.43;100.00;153699.78;5075481;28;20181;-66
2023/06/18 07:54:49;;;;;;;6.40;5.70;;;;;;;30.71;100.00;153772.91;5074878;28;20240;-65
2023/06/18 07:57:16;;;;;;;126.57;81.03;;;;;;;30.90;100.00;153819.03;5075559;28;20188;-66
2023/06/18 07:59:43;;;;;;;8.10;7.47;;;;;;;31.20;100.00;153897.28;5075295;28;20223;-65
2023/06/18 08:02:10;;;;;;;6.70;5.95;;;;;;;31.23;100.00;153904.97;5074872;28;20279;-65
2023/06/18 08:04:37;;;;;;;53.28;36.45;;;;;;;31.42;100.00;153951.16;5074802;28;20558;-66
2023/06/18 08:07:04;;;;;;;11.80;10.85;;;;;;;31.34;100.00;153931.94;5075208;28;20189;-65
2023/06/18 08:09:31;;;;;;;11.50;9.95;;;;;;;31.60;100.00;153997.41;5074852;28;20185;-65
2023/06/18 08:11:59;;;;;;;8.00;7.30;;;;;;;31.45;100.00;153960.13;5074665;28;20197;-65
2023/06/18 08:14:27;;;;;;;13.27;7.95;;;;;;;31.46;100.00;153961.41;5075220;28;20224;-65
2023/06/18 08:16:54;;;;;;;25.70;17.55;;;;;;;31.17;100.00;153888.31;5074653;28;20226;-65
2023/06/18 08:19:21;;;;;;;102.78;55.20;;;;;;;31.38;100.00;153942.19;5074556;28;20187;-65
2023/06/18 08:21:49;;;;;;;15.63;13.75;;;;;;;31.40;100.00;153946.06;5074583;28;20607;-64
2023/06/18 08:24:16;;;;;;;9.68;8.88;;;;;;;31.45;100.00;153958.84;5074447;28;20353;-65
2023/06/18 08:26:43;;;;;;;29.58;19.45;;;;;;;31.71;100.00;154026.88;5074476;28;20192;-66
2023/06/18 08:29:11;;;;;;;7.57;6.72;;;;;;;31.29;100.00;153920.38;5074750;28;20191;-65
2023/06/18 08:31:40;;;;;;;9.73;8.75;;;;;;;31.35;100.00;153933.22;5074382;28;20192;-66
2023/06/18 08:34:08;;;;;;;7.38;6.88;;;;;;;31.43;100.00;153953.72;5074505;28;20559;-66
2023/06/18 08:36:35;;;;;;;16.40;14.80;;;;;;;31.35;100.00;153933.22;5074555;28;20215;-65
2023/06/18 08:39:02;;;;;;;7.45;6.95;;;;;;;31.41;100.00;153949.88;5074322;28;20184;-66
2023/06/18 08:41:29;;;;;;;6.47;5.95;;;;;;;31.59;100.00;153994.81;5072968;28;20196;-65
2023/06/18 08:43:57;;;;;;;6.68;5.95;;;;;;;31.59;100.00;153994.81;5074164;28;20224;-66
2023/06/18 08:46:27;;;;;;;5.93;5.63;;;;;;;31.91;100.00;154076.91;5074310;28;20203;-66
2023/06/18 08:48:59;;;;;;;6.25;5.95;;;;;;;32.13;100.00;154132.13;5072961;28;20224;-65
2023/06/18 08:51:26;;;;;;;5.70;5.38;;;;;;;32.33;100.00;154182.19;5074388;28;20246;-64
2023/06/18 08:53:59;;;;;;;6.07;5.68;;;;;;;31.84;100.00;154058.94;5074705;28;20692;-66
2023/06/18 08:56:28;;;;;;;5.53;5.22;;;;;;;31.97;100.00;154092.31;5074308;28;20666;-66
2023/06/18 08:58:57;;;;;;;7.18;6.78;;;;;;;32.52;100.00;154230.94;5072900;28;20474;-65
2023/06/18 09:01:26;;;;;;;6.30;6.00;;;;;;;32.58;100.00;154246.34;5074041;28;20192;-64
2023/06/18 09:03:55;;;;;;;6.50;6.10;;;;;;;32.98;100.00;154349.06;5073956;28;20185;-65
2023/06/18 09:06:23;;;;;;;6.00;5.60;;;;;;;32.85;100.00;154314.41;5073783;28;20195;-67
2023/06/18 09:08:50;;;;;;;6.20;5.90;;;;;;;32.33;100.00;154183.47;5073763;28;20189;-66
2023/06/18 09:11:17;;;;;;;12.55;11.55;;;;;;;32.63;100.00;154259.25;5073834;28;20188;-65
2023/06/18 09:13:45;;;;;;;6.60;5.88;;;;;;;33.11;100.00;154379.88;5073752;28;20201;-65
2023/06/18 09:16:12;;;;;;;8.77;8.20;;;;;;;32.88;100.00;154323.44;5073712;28;20594;-66
2023/06/18 09:18:40;;;;;;;23.25;17.02;;;;;;;32.58;100.00;154246.34;5073298;28;20275;-65
2023/06/18 09:21:08;;;;;;;8.68;5.15;;;;;;;32.25;100.00;154162.97;5073594;28;20551;-64
2023/06/18 09:23:35;;;;;;;6.30;5.88;;;;;;;32.14;100.00;154135.97;5073559;28;20599;-65
2023/06/18 09:26:02;;;;;;;6.07;5.78;;;;;;;32.20;100.00;154148.81;5072111;28;20181;-65
2023/06/18 09:28:30;;;;;;;7.28;5.75;;;;;;;32.35;100.00;154188.59;5073356;28;20196;-65
2023/06/18 09:31:00;;;;;;;6.35;5.78;;;;;;;32.46;100.00;154215.56;5073417;28;20185;-66
2023/06/18 09:33:29;;;;;;;10.40;6.00;;;;;;;32.56;100.00;154241.19;5073418;28;20189;-65
2023/06/18 09:36:02;;;;;;;6.43;4.57;;;;;;;32.60;100.00;154252.75;5072876;28;20209;-66
2023/06/18 09:38:39;;;;;;;7.32;6.68;;;;;;;32.73;100.00;154283.59;5072970;28;20225;-65
2023/06/18 09:41:12;;;;;;;19.02;17.17;;;;;;;33.10;100.00;154377.34;5073123;28;20283;-65
2023/06/18 09:43:40;;;;;;;10.40;9.63;;;;;;;33.19;100.00;154400.44;5072759;28;20682;-65
2023/06/18 09:46:08;;;;;;;13.30;12.13;;;;;;;33.42;100.00;154460.81;5072934;28;20177;-65
2023/06/18 09:48:41;;;;;;;6.30;5.85;;;;;;;32.93;100.00;154336.22;5073272;28;20270;-66
2023/06/18 09:51:10;;;;;;;6.00;5.60;;;;;;;33.02;100.00;154359.34;5073075;28;20602;-65
2023/06/18 09:53:37;;;;;;;5.40;5.10;;;;;;;33.32;100.00;154435.13;5072863;28;20195;-65
2023/06/18 09:56:12;;;;;;;5.97;5.65;;;;;;;33.77;95.79;154548.19;5072845;28;20205;-66
2023/06/18 09:58:41;;;;;;;5.93;5.43;;;;;;;33.78;95.02;154552.03;5072627;28;20188;-65
2023/06/18 10:01:09;;;;;;;14.63;11.85;;;;;;;34.27;92.54;154675.41;5072626;28;20181;-65
2023/06/18 10:03:36;;;;;;;6.20;5.75;;;;;;;34.10;91.30;154631.66;5072451;28;20189;-65
2023/06/18 10:06:15;;;;;;;6.78;6.43;;;;;;;34.10;92.93;154631.66;5072554;28;20230;-66
2023/06/18 10:08:44;;;;;;;9.45;8.75;;;;;;;34.10;93.27;154632.97;5072514;28;20198;-66
2023/06/18 10:11:13;;;;;;;5.68;5.38;;;;;;;34.26;89.43;154672.81;5072170;28;20196;-65
2023/06/18 10:13:45;;;;;;;5.88;5.38;;;;;;;34.15;93.36;154644.53;5072814;28;20198;-66
2023/06/18 10:16:15;;;;;;;6.00;5.57;;;;;;;34.01;94.74;154609.84;5072579;28;20278;-66
2023/06/18 10:18:49;;;;;;;5.88;5.63;;;;;;;33.92;93.17;154588.00;5072388;28;20180;-66
2023/06/18 10:21:20;;;;;;;5.07;4.88;;;;;;;33.33;97.03;154437.72;5072564;28;20184;-65
2023/06/18 10:23:51;;;;;;;10.88;9.88;;;;;;;33.14;95.08;154387.66;5072203;28;20228;-66
2023/06/18 10:26:20;;;;;;;6.78;6.35;;;;;;;32.89;96.96;154325.94;5072440;28;20238;-64
2023/06/18 10:28:47;;;;;;;37.33;25.33;;;;;;;32.69;98.77;154274.63;5072535;28;20189;-65
2023/06/18 10:31:14;;;;;;;11.10;10.00;;;;;;;32.27;98.45;154166.78;5072538;28;20559;-65
2023/06/18 10:33:43;;;;;;;6.00;5.47;;;;;;;32.09;97.79;154121.84;5072059;28;20242;-65
2023/06/18 10:36:11;;;;;;;7.90;7.30;;;;;;;32.21;100.00;154151.41;5072439;28;20205;-64
2023/06/18 10:38:39;;;;;;;29.27;21.20;;;;;;;32.05;100.00;154111.53;5072506;28;20536;-67
2023/06/18 10:41:12;;;;;;;6.45;5.97;;;;;;;32.09;100.00;154121.84;5072046;28;20184;-65
2023/06/18 10:43:40;;;;;;;6.45;6.15;;;;;;;32.13;100.00;154133.41;5071922;28;20554;-65
2023/06/18 10:46:16;;;;;;;6.68;6.10;;;;;;;32.02;100.00;154105.16;5071922;28;20199;-66
2023/06/18 10:49:03;;;;;;;14.73;10.00;;;;;;;31.90;100.00;154073.09;5072505;28;20623;-64
2023/06/18 10:51:30;;;;;;;34.08;24.75;;;;;;;31.76;100.00;154038.44;5071682;28;20283;-63
2023/06/18 10:54:22;;;;;;;15.30;10.63;;;;;;;31.86;100.00;154064.13;5072080;28;20580;-65
2023/06/18 10:56:54;;;;;;;8.02;7.32;;;;;;;31.90;100.00;154074.38;5072199;28;20209;-65
2023/06/18 10:59:42;;;;;;;5.82;5.43;;;;;;;31.80;100.00;154047.41;5072128;28;20715;-65
2023/06/18 11:02:10;;;;;;;6.00;5.60;;;;;;;31.58;100.00;153992.25;5072179;28;20639;-65
2023/06/18 11:04:37;;;;;;;6.28;5.88;;;;;;;31.25;100.00;153910.13;5071425;28;20255;-66
2023/06/18 11:07:19;;;;;;;6.10;5.53;;;;;;;31.11;100.00;153872.91;5071632;28;20192;-65
2023/06/18 11:09:52;;;;;;;8.05;7.43;;;;;;;31.16;100.00;153887.03;5072043;28;20662;-65
2023/06/18 11:12:21;;;;;;;7.53;7.00;;;;;;;30.99;100.00;153843.38;5071411;28;20191;-65
2023/06/18 11:15:15;;;;;;;20.27;15.85;;;;;;;30.79;100.00;153792.13;5071999;28;20215;-65
2023/06/18 11:17:43;;;;;;;117.10;65.70;;;;;;;30.74;100.00;153779.28;5071660;28;20185;-65
2023/06/18 11:20:12;;;;;;;17.60;13.52;;;;;;;30.82;100.00;153799.78;5071742;28;20189;-65